createdAt,value
2019-04-05T00:01:07.693Z,6.50
2019-04-05T00:06:12.748Z,6.40
2019-04-05T00:11:17.950Z,6.50
2019-04-05T00:16:22.963Z,6.50
2019-04-05T00:21:28.009Z,6.50
2019-04-05T00:26:34.153Z,6.60
2019-04-05T00:31:39.395Z,6.50
2019-04-05T00:36:44.471Z,6.50
2019-04-05T00:41:49.695Z,6.60
2019-04-05T00:46:54.681Z,6.60
2019-04-05T00:52:00.108Z,6.60
2019-04-05T00:57:05.230Z,6.60
2019-04-05T01:02:12.755Z,6.60
2019-04-05T01:07:16.905Z,6.50
2019-04-05T01:12:23.858Z,6.50
2019-04-05T01:17:28.877Z,6.50
2019-04-05T01:22:35.215Z,6.40
2019-04-05T01:27:41.805Z,6.40
2019-04-05T01:32:47.796Z,6.50
2019-04-05T01:37:53.445Z,6.50
2019-04-05T01:42:59.242Z,6.60
2019-04-05T01:48:04.246Z,6.40
2019-04-05T01:53:10.374Z,6.40
2019-04-05T01:58:17.130Z,6.40
2019-04-05T02:03:22.221Z,6.30
2019-04-05T02:08:27.349Z,6.30
2019-04-05T02:13:32.406Z,6.00
2019-04-05T02:18:37.651Z,5.90
2019-04-05T02:23:42.676Z,5.80
2019-04-05T02:28:47.702Z,5.80
2019-04-05T02:33:53.125Z,5.70
2019-04-05T02:38:58.260Z,5.60
2019-04-05T02:44:03.712Z,5.60
2019-04-05T02:49:09.243Z,5.60
2019-04-05T02:54:15.523Z,5.50
2019-04-05T02:59:21.162Z,5.50
2019-04-05T03:04:26.687Z,5.50
2019-04-05T03:09:32.423Z,5.40
2019-04-05T03:14:39.091Z,5.50
2019-04-05T03:19:47.190Z,5.60
2019-04-05T03:24:53.664Z,5.50
2019-04-05T03:29:59.026Z,5.50
2019-04-05T03:35:04.652Z,5.50
2019-04-05T03:40:10.221Z,5.60
2019-04-05T03:45:15.787Z,5.60
2019-04-05T03:50:20.942Z,5.50
2019-04-05T03:55:26.308Z,5.50
2019-04-05T04:00:31.508Z,5.50
2019-04-05T04:05:36.682Z,5.50
2019-04-05T04:10:42.054Z,5.50
2019-04-05T04:15:47.718Z,5.40
2019-04-05T04:20:56.149Z,5.50
2019-04-05T04:26:02.125Z,5.40
2019-04-05T04:31:08.335Z,5.50
2019-04-05T04:36:15.269Z,5.40
2019-04-05T04:41:21.926Z,5.40
2019-04-05T04:46:29.508Z,5.40
2019-04-05T04:51:35.295Z,5.40
2019-04-05T04:56:40.651Z,5.40
2019-04-05T05:01:46.616Z,5.40
2019-04-05T05:06:51.961Z,5.40
2019-04-05T05:11:57.466Z,5.30
2019-04-05T05:17:03.024Z,5.30
2019-04-05T05:22:08.394Z,5.30
2019-04-05T05:27:13.998Z,5.30
2019-04-05T05:32:19.217Z,5.30
2019-04-05T05:37:24.781Z,5.30
2019-04-05T05:42:29.811Z,5.30
2019-04-05T05:47:35.171Z,5.30
2019-04-05T05:52:40.635Z,5.30
2019-04-05T05:57:46.020Z,5.30
2019-04-05T06:08:12.984Z,5.40
2019-04-05T06:13:18.188Z,5.30
2019-04-05T06:18:23.304Z,5.40
2019-04-05T06:23:34.072Z,5.40
2019-04-05T06:28:35.065Z,5.40
2019-04-05T06:33:40.106Z,5.40
2019-04-05T06:38:47.057Z,5.50
2019-04-05T06:43:58.408Z,5.50
2019-04-05T06:49:03.561Z,5.50
2019-04-05T06:54:08.614Z,5.50
2019-04-05T06:59:13.701Z,5.50
2019-04-05T07:04:18.936Z,5.50
2019-04-05T07:09:24.396Z,5.60
2019-04-05T07:14:29.472Z,5.60
2019-04-05T07:19:34.528Z,5.60
2019-04-05T07:24:40.895Z,5.60
2019-04-05T07:29:45.934Z,5.60
2019-04-05T07:34:50.973Z,5.60
2019-04-05T07:39:56.008Z,5.60
2019-04-05T07:45:02.930Z,5.70
2019-04-05T07:50:09.928Z,5.80
2019-04-05T07:55:15.968Z,5.80
2019-04-05T08:00:42.409Z,5.80
2019-04-05T08:05:48.349Z,5.80
2019-04-05T08:10:54.248Z,5.90
2019-04-05T08:16:01.758Z,5.90
2019-04-05T08:21:07.118Z,5.90
2019-04-05T08:26:14.073Z,6.00
2019-04-05T08:31:19.070Z,6.00
2019-04-05T08:36:25.942Z,6.00
2019-04-05T08:41:33.053Z,6.10
2019-04-05T08:46:38.056Z,6.10
2019-04-05T08:51:43.126Z,6.10
2019-04-05T08:56:48.332Z,6.10
2019-04-05T09:01:53.691Z,6.10
2019-04-05T09:06:59.058Z,6.10
2019-04-05T09:12:04.085Z,6.10
2019-04-05T09:17:09.163Z,6.20
2019-04-05T09:22:16.451Z,6.30
2019-04-05T09:27:22.577Z,6.30
2019-04-05T09:32:28.314Z,6.30
2019-04-05T09:37:33.447Z,6.40
2019-04-05T09:42:40.178Z,6.60
2019-04-05T09:47:45.395Z,6.80
2019-04-05T09:52:50.678Z,6.90
2019-04-05T09:57:55.734Z,6.80
2019-04-05T10:03:00.765Z,6.80
2019-04-05T10:08:07.644Z,6.80
2019-04-05T10:13:14.146Z,6.80
2019-04-05T10:18:19.194Z,6.80
2019-04-05T10:23:24.379Z,6.80
2019-04-05T10:28:29.761Z,6.80
2019-04-05T10:33:34.768Z,6.80
2019-04-05T10:38:39.919Z,6.90
2019-04-05T10:43:45.208Z,6.90
2019-04-05T10:48:50.337Z,7.00
2019-04-05T10:53:55.399Z,7.10
2019-04-05T10:59:00.656Z,7.10
2019-04-05T11:04:05.699Z,7.30
2019-04-05T11:09:10.783Z,7.40
2019-04-05T11:14:16.908Z,7.30
2019-04-05T11:19:22.428Z,7.20
2019-04-05T11:24:27.483Z,7.30
2019-04-05T11:29:32.508Z,7.40
2019-04-05T11:34:38.641Z,7.40
2019-04-05T11:39:48.273Z,7.60
2019-04-05T11:44:53.903Z,7.50
2019-04-05T11:50:01.969Z,7.50
2019-04-05T11:55:07.585Z,7.50
2019-04-05T12:00:18.908Z,7.60
2019-04-05T12:05:26.941Z,7.60
2019-04-05T12:10:32.658Z,7.50
2019-04-05T12:15:37.992Z,7.50
2019-04-05T12:20:49.697Z,7.50
2019-04-05T12:25:49.633Z,7.50
2019-04-05T12:30:54.988Z,7.50
2019-04-05T12:36:01.904Z,7.70
2019-04-05T12:41:10.659Z,7.70
2019-04-05T12:46:16.117Z,7.70
2019-04-05T12:57:27.896Z,7.60
2019-04-05T13:02:34.141Z,7.70
2019-04-05T13:07:39.386Z,7.70
2019-04-05T13:12:44.443Z,7.70
2019-04-05T13:17:49.736Z,7.70
2019-04-05T13:22:54.772Z,7.70
2019-04-05T13:27:59.798Z,7.70
2019-04-05T13:33:05.292Z,7.80
2019-04-05T13:38:12.212Z,7.70
2019-04-05T13:43:17.840Z,7.70
2019-04-05T13:48:22.915Z,7.70
2019-04-05T13:53:28.038Z,7.70
2019-04-05T13:58:33.091Z,7.80
2019-04-05T14:03:38.135Z,7.60
2019-04-05T14:08:43.811Z,7.70
2019-04-05T14:13:48.937Z,7.70
2019-04-05T14:18:55.955Z,7.70
2019-04-05T14:24:04.527Z,7.70
2019-04-05T14:29:09.167Z,7.70
2019-04-05T14:34:14.302Z,7.60
2019-04-05T14:39:19.433Z,7.60
2019-04-05T14:44:24.458Z,7.60
2019-04-05T14:49:30.747Z,7.70
2019-04-05T14:54:36.164Z,7.60
2019-04-05T14:59:41.415Z,7.60
2019-04-05T15:04:49.196Z,7.60
2019-04-05T15:09:55.563Z,7.60
2019-04-05T15:15:01.778Z,7.60
2019-04-05T15:20:07.967Z,7.50
2019-04-05T15:25:16.947Z,7.50
2019-04-05T15:30:20.357Z,7.50
2019-04-05T15:35:26.481Z,7.50
2019-04-05T15:40:33.647Z,7.50
2019-04-05T15:45:38.727Z,7.50
2019-04-05T15:50:57.668Z,7.50
2019-04-05T15:56:05.133Z,7.50
2019-04-05T16:01:11.353Z,7.50
2019-04-05T16:06:16.474Z,7.50
2019-04-05T16:11:21.862Z,7.50
2019-04-05T16:16:28.207Z,7.50
2019-04-05T16:21:33.299Z,7.50
2019-04-05T16:26:44.151Z,7.60
2019-04-05T16:31:49.216Z,7.50
2019-04-05T16:36:54.260Z,7.50
2019-04-05T16:41:59.401Z,7.50
2019-04-05T16:47:04.427Z,7.40
2019-04-05T16:52:10.378Z,7.50
2019-04-05T16:57:15.436Z,7.50
2019-04-05T17:02:20.613Z,7.40
2019-04-05T17:07:25.651Z,7.40
2019-04-05T17:12:30.907Z,7.40
2019-04-05T17:17:36.260Z,7.40
2019-04-05T17:22:41.417Z,7.40
2019-04-05T17:27:46.541Z,7.30
2019-04-05T17:32:52.554Z,7.30
2019-04-05T17:37:57.569Z,7.40
2019-04-05T17:43:03.725Z,7.30
2019-04-05T17:48:08.802Z,7.30
2019-04-05T17:53:13.862Z,7.30
2019-04-05T17:58:19.386Z,7.30
2019-04-05T18:03:24.552Z,7.30
2019-04-05T18:08:29.633Z,7.30
2019-04-05T18:13:34.669Z,7.30
2019-04-05T18:18:39.695Z,7.30
2019-04-05T18:23:44.736Z,7.30
2019-04-05T18:28:49.765Z,7.30
2019-04-05T18:33:54.835Z,7.30
2019-04-05T18:38:59.856Z,7.30
2019-04-05T18:44:05.129Z,7.30
2019-04-05T18:49:10.188Z,7.30
2019-04-05T18:54:15.232Z,7.20
2019-04-05T18:59:20.276Z,7.20
2019-04-05T19:04:26.441Z,7.30
2019-04-05T19:09:31.505Z,7.30
2019-04-05T19:14:36.662Z,7.30
2019-04-05T19:19:41.849Z,7.30
2019-04-05T19:24:47.849Z,7.30
2019-04-05T19:29:52.859Z,7.20
2019-04-05T19:50:19.541Z,7.30
2019-04-05T19:55:24.717Z,7.30
2019-04-05T20:00:30.732Z,7.30
2019-04-05T20:05:35.807Z,7.20
2019-04-05T20:10:40.835Z,7.20
2019-04-05T20:15:45.865Z,7.20
2019-04-05T20:20:50.888Z,7.20
2019-04-05T20:25:55.924Z,7.30
2019-04-05T20:31:02.341Z,7.30
2019-04-05T20:36:07.393Z,7.20
2019-04-05T20:41:12.475Z,7.20
2019-04-05T20:46:17.760Z,7.20
2019-04-05T20:51:22.795Z,7.20
2019-04-05T20:56:28.178Z,7.20
2019-04-05T21:01:33.233Z,7.20
2019-04-05T21:06:38.548Z,7.20
2019-04-05T21:11:43.576Z,7.20
2019-04-05T21:16:48.685Z,7.20
2019-04-05T21:21:53.886Z,7.20
2019-04-05T21:26:59.112Z,7.20
2019-04-05T21:32:04.136Z,7.20
2019-04-05T21:37:09.169Z,7.20
2019-04-05T21:42:16.646Z,7.20
2019-04-05T21:47:20.997Z,7.20
2019-04-05T21:52:27.776Z,7.20
2019-04-05T21:57:33.780Z,7.20
2019-04-05T22:02:38.924Z,7.10
2019-04-05T22:07:44.080Z,7.10
2019-04-05T22:12:49.136Z,7.10
2019-04-05T22:17:55.006Z,7.10
2019-04-05T22:23:00.015Z,7.20
2019-04-05T22:28:05.295Z,7.20
2019-04-05T22:33:10.473Z,7.20
2019-04-05T22:38:15.464Z,7.10
2019-04-05T22:43:20.524Z,7.10
2019-04-05T22:48:25.571Z,7.10
2019-04-05T22:53:30.658Z,7.10
2019-04-05T22:58:35.716Z,7.10
2019-04-05T23:03:40.897Z,7.10
2019-04-05T23:08:46.400Z,7.10
2019-04-05T23:13:51.559Z,7.10
2019-04-05T23:18:56.708Z,7.10
2019-04-05T23:24:02.339Z,7.00
2019-04-05T23:29:07.828Z,7.10
2019-04-05T23:34:12.859Z,7.10
2019-04-05T23:39:17.906Z,7.10
2019-04-05T23:44:22.971Z,7.10
2019-04-05T23:49:28.089Z,7.00
2019-04-05T23:54:33.275Z,7.00
2019-04-05T23:59:38.296Z,7.00
